sensor_id;sensor_type;location;lat;lon;timestamp;pressure;altitude;pressure_sealevel;temperature;humidity
50282;BME280;36176;51.506;10.272;2024-02-16T00:02:12;99240.94;;;9.66;100.00
50282;BME280;36176;51.506;10.272;2024-02-16T00:04:40;99242.41;;;9.72;100.00
50282;BME280;36176;51.506;10.272;2024-02-16T00:07:10;99239.44;;;9.79;100.00
50282;BME280;36176;51.506;10.272;2024-02-16T00:09:37;99241.56;;;9.90;100.00
50282;BME280;36176;51.506;10.272;2024-02-16T00:12:04;99231.47;;;9.98;99.98
50282;BME280;36176;51.506;10.272;2024-02-16T00:14:32;99232.94;;;10.04;99.04
50282;BME280;36176;51.506;10.272;2024-02-16T00:16:59;99226.41;;;10.11;98.97
50282;BME280;36176;51.506;10.272;2024-02-16T00:19:26;99222.53;;;10.18;98.29
50282;BME280;36176;51.506;10.272;2024-02-16T00:21:54;99216.72;;;10.29;97.52
50282;BME280;36176;51.506;10.272;2024-02-16T00:24:21;99224.16;;;10.40;96.70
50282;BME280;36176;51.506;10.272;2024-02-16T00:26:49;99216.59;;;10.50;96.08
50282;BME280;36176;51.506;10.272;2024-02-16T00:29:18;99200.47;;;10.54;94.93
50282;BME280;36176;51.506;10.272;2024-02-16T00:31:46;99197.81;;;10.54;94.71
50282;BME280;36176;51.506;10.272;2024-02-16T00:34:14;99190.88;;;10.52;95.46
50282;BME280;36176;51.506;10.272;2024-02-16T00:36:41;99188.22;;;10.52;94.87
50282;BME280;36176;51.506;10.272;2024-02-16T00:39:12;99185.41;;;10.55;94.47
50282;BME280;36176;51.506;10.272;2024-02-16T00:41:41;99197.19;;;10.67;93.51
50282;BME280;36176;51.506;10.272;2024-02-16T00:44:11;99187.13;;;10.73;93.31
50282;BME280;36176;51.506;10.272;2024-02-16T00:46:39;99187.03;;;10.75;93.12
50282;BME280;36176;51.506;10.272;2024-02-16T00:49:06;99185.38;;;10.72;93.38
50282;BME280;36176;51.506;10.272;2024-02-16T00:51:34;99196.31;;;10.66;92.95
50282;BME280;36176;51.506;10.272;2024-02-16T00:54:02;99197.97;;;10.69;93.00
50282;BME280;36176;51.506;10.272;2024-02-16T00:56:30;99190.69;;;10.72;92.92
50282;BME280;36176;51.506;10.272;2024-02-16T00:58:57;99191.81;;;10.68;92.77
50282;BME280;36176;51.506;10.272;2024-02-16T01:01:24;99188.28;;;10.68;92.74
50282;BME280;36176;51.506;10.272;2024-02-16T01:03:52;99184.94;;;10.64;92.67
50282;BME280;36176;51.506;10.272;2024-02-16T01:06:20;99189.47;;;10.62;92.77
50282;BME280;36176;51.506;10.272;2024-02-16T01:08:48;99198.66;;;10.55;93.15
50282;BME280;36176;51.506;10.272;2024-02-16T01:11:16;99195.69;;;10.43;93.43
50282;BME280;36176;51.506;10.272;2024-02-16T01:13:45;99200.53;;;10.35;93.36
50282;BME280;36176;51.506;10.272;2024-02-16T01:16:13;99199.13;;;10.28;93.50
50282;BME280;36176;51.506;10.272;2024-02-16T01:18:40;99195.56;;;10.10;94.19
50282;BME280;36176;51.506;10.272;2024-02-16T01:21:09;99196.06;;;10.01;94.64
50282;BME280;36176;51.506;10.272;2024-02-16T01:23:37;99197.28;;;9.94;95.21
50282;BME280;36176;51.506;10.272;2024-02-16T01:26:04;99192.13;;;9.91;95.72
50282;BME280;36176;51.506;10.272;2024-02-16T01:28:31;99191.38;;;10.06;95.45
50282;BME280;36176;51.506;10.272;2024-02-16T01:30:58;99195.44;;;10.13;95.15
50282;BME280;36176;51.506;10.272;2024-02-16T01:33:28;99197.91;;;10.16;95.45
50282;BME280;36176;51.506;10.272;2024-02-16T01:35:55;99191.84;;;10.14;94.60
50282;BME280;36176;51.506;10.272;2024-02-16T01:38:23;99193.88;;;10.09;95.14
50282;BME280;36176;51.506;10.272;2024-02-16T01:40:50;99193.25;;;10.04;95.60
50282;BME280;36176;51.506;10.272;2024-02-16T01:43:21;99181.25;;;9.97;96.05
50282;BME280;36176;51.506;10.272;2024-02-16T01:45:48;99189.47;;;9.91;96.03
50282;BME280;36176;51.506;10.272;2024-02-16T01:48:16;99176.28;;;10.08;95.53
50282;BME280;36176;51.506;10.272;2024-02-16T01:50:44;99179.22;;;10.19;95.56
50282;BME280;36176;51.506;10.272;2024-02-16T01:53:12;99177.00;;;10.29;94.68
50282;BME280;36176;51.506;10.272;2024-02-16T01:55:39;99176.47;;;10.40;94.08
50282;BME280;36176;51.506;10.272;2024-02-16T01:58:06;99173.75;;;10.41;93.48
50282;BME280;36176;51.506;10.272;2024-02-16T02:00:34;99176.78;;;10.34;93.45
50282;BME280;36176;51.506;10.272;2024-02-16T02:03:02;99172.44;;;10.33;93.67
50282;BME280;36176;51.506;10.272;2024-02-16T02:05:29;99175.31;;;10.28;93.70
50282;BME280;36176;51.506;10.272;2024-02-16T02:07:57;99171.91;;;10.25;93.18
50282;BME280;36176;51.506;10.272;2024-02-16T02:10:26;99175.09;;;10.14;93.81
50282;BME280;36176;51.506;10.272;2024-02-16T02:12:53;99179.16;;;10.04;93.65
50282;BME280;36176;51.506;10.272;2024-02-16T02:15:20;99176.13;;;9.94;93.86
50282;BME280;36176;51.506;10.272;2024-02-16T02:17:48;99166.75;;;9.87;94.01
50282;BME280;36176;51.506;10.272;2024-02-16T02:20:15;99158.63;;;9.72;94.70
50282;BME280;36176;51.506;10.272;2024-02-16T02:22:42;99167.50;;;9.71;95.14
50282;BME280;36176;51.506;10.272;2024-02-16T02:25:10;99167.34;;;9.74;95.55
50282;BME280;36176;51.506;10.272;2024-02-16T02:27:39;99162.81;;;9.76;95.25
50282;BME280;36176;51.506;10.272;2024-02-16T02:30:07;99161.06;;;9.77;95.14
50282;BME280;36176;51.506;10.272;2024-02-16T02:32:34;99154.03;;;9.76;95.20
50282;BME280;36176;51.506;10.272;2024-02-16T02:35:02;99152.13;;;9.79;95.13
50282;BME280;36176;51.506;10.272;2024-02-16T02:37:29;99149.94;;;9.88;95.07
50282;BME280;36176;51.506;10.272;2024-02-16T02:39:59;99150.34;;;9.97;94.67
50282;BME280;36176;51.506;10.272;2024-02-16T02:42:28;99148.69;;;10.12;94.36
50282;BME280;36176;51.506;10.272;2024-02-16T02:44:56;99139.50;;;10.19;94.13
50282;BME280;36176;51.506;10.272;2024-02-16T02:47:23;99142.09;;;10.21;93.22
50282;BME280;36176;51.506;10.272;2024-02-16T02:49:51;99139.69;;;10.16;93.88
50282;BME280;36176;51.506;10.272;2024-02-16T02:52:23;99124.25;;;10.25;93.20
50282;BME280;36176;51.506;10.272;2024-02-16T02:55:09;99115.88;;;10.34;92.93
50282;BME280;36176;51.506;10.272;2024-02-16T02:57:41;99118.22;;;10.40;92.70
50282;BME280;36176;51.506;10.272;2024-02-16T03:00:16;99113.53;;;10.45;92.54
50282;BME280;36176;51.506;10.272;2024-02-16T03:02:46;99117.41;;;10.55;92.59
50282;BME280;36176;51.506;10.272;2024-02-16T03:05:14;99116.91;;;10.64;92.11
50282;BME280;36176;51.506;10.272;2024-02-16T03:07:41;99118.53;;;10.67;91.76
50282;BME280;36176;51.506;10.272;2024-02-16T03:10:09;99113.06;;;10.70;90.91
50282;BME280;36176;51.506;10.272;2024-02-16T03:12:40;99116.09;;;10.80;90.74
50282;BME280;36176;51.506;10.272;2024-02-16T03:15:07;99113.19;;;10.84;90.68
50282;BME280;36176;51.506;10.272;2024-02-16T03:17:35;99108.53;;;10.90;90.29
50282;BME280;36176;51.506;10.272;2024-02-16T03:20:03;99109.44;;;10.89;89.79
50282;BME280;36176;51.506;10.272;2024-02-16T03:22:39;99099.53;;;10.92;89.51
50282;BME280;36176;51.506;10.272;2024-02-16T03:25:07;99093.88;;;10.98;89.71
50282;BME280;36176;51.506;10.272;2024-02-16T03:27:34;99093.56;;;11.04;89.42
50282;BME280;36176;51.506;10.272;2024-02-16T03:30:02;99092.34;;;11.10;89.76
50282;BME280;36176;51.506;10.272;2024-02-16T03:32:31;99096.75;;;11.11;89.98
50282;BME280;36176;51.506;10.272;2024-02-16T03:34:58;99093.31;;;11.09;89.12
50282;BME280;36176;51.506;10.272;2024-02-16T03:37:26;99103.56;;;11.15;88.22
50282;BME280;36176;51.506;10.272;2024-02-16T03:39:53;99098.09;;;11.18;88.33
50282;BME280;36176;51.506;10.272;2024-02-16T03:42:20;99089.13;;;11.21;87.90
50282;BME280;36176;51.506;10.272;2024-02-16T03:44:47;99098.72;;;11.23;88.11
50282;BME280;36176;51.506;10.272;2024-02-16T03:47:15;99102.13;;;11.25;87.70
50282;BME280;36176;51.506;10.272;2024-02-16T03:49:43;99104.69;;;11.27;87.68
50282;BME280;36176;51.506;10.272;2024-02-16T03:52:12;99103.75;;;11.28;87.12
50282;BME280;36176;51.506;10.272;2024-02-16T03:54:39;99100.91;;;11.31;86.92
50282;BME280;36176;51.506;10.272;2024-02-16T03:57:06;99102.78;;;11.29;87.71
50282;BME280;36176;51.506;10.272;2024-02-16T03:59:34;99109.38;;;11.22;87.97
50282;BME280;36176;51.506;10.272;2024-02-16T04:02:01;99110.75;;;11.13;88.37
50282;BME280;36176;51.506;10.272;2024-02-16T04:04:29;99107.50;;;11.08;88.20
50282;BME280;36176;51.506;10.272;2024-02-16T04:06:56;99104.59;;;10.97;89.14
50282;BME280;36176;51.506;10.272;2024-02-16T04:09:24;99096.13;;;10.90;89.58
50282;BME280;36176;51.506;10.272;2024-02-16T04:11:54;99100.97;;;10.82;89.36
50282;BME280;36176;51.506;10.272;2024-02-16T04:14:21;99101.38;;;10.74;90.25
50282;BME280;36176;51.506;10.272;2024-02-16T04:16:50;99099.22;;;10.65;90.20
50282;BME280;36176;51.506;10.272;2024-02-16T04:19:18;99094.69;;;10.51;90.71
50282;BME280;36176;51.506;10.272;2024-02-16T04:21:46;99098.59;;;10.44;91.06
50282;BME280;36176;51.506;10.272;2024-02-16T04:24:13;99095.28;;;10.39;91.28
50282;BME280;36176;51.506;10.272;2024-02-16T04:26:40;99097.31;;;10.34;91.43
50282;BME280;36176;51.506;10.272;2024-02-16T04:29:08;99104.41;;;10.33;91.45
50282;BME280;36176;51.506;10.272;2024-02-16T04:31:35;99096.72;;;10.29;91.99
50282;BME280;36176;51.506;10.272;2024-02-16T04:34:02;99097.88;;;10.23;92.11
50282;BME280;36176;51.506;10.272;2024-02-16T04:36:30;99092.75;;;10.20;92.14
50282;BME280;36176;51.506;10.272;2024-02-16T04:38:57;99096.31;;;10.19;92.16
50282;BME280;36176;51.506;10.272;2024-02-16T04:41:24;99100.03;;;10.15;92.29
50282;BME280;36176;51.506;10.272;2024-02-16T04:43:55;99103.69;;;10.12;92.30
50282;BME280;36176;51.506;10.272;2024-02-16T04:46:22;99100.81;;;10.17;92.62
50282;BME280;36176;51.506;10.272;2024-02-16T04:48:49;99096.13;;;10.22;92.14
50282;BME280;36176;51.506;10.272;2024-02-16T04:51:20;99100.16;;;10.31;92.44
50282;BME280;36176;51.506;10.272;2024-02-16T04:53:47;99103.41;;;10.36;92.27
50282;BME280;36176;51.506;10.272;2024-02-16T04:56:14;99099.84;;;10.37;92.03
50282;BME280;36176;51.506;10.272;2024-02-16T04:58:43;99102.63;;;10.34;91.77
50282;BME280;36176;51.506;10.272;2024-02-16T05:01:13;99105.56;;;10.28;92.35
50282;BME280;36176;51.506;10.272;2024-02-16T05:03:40;99097.78;;;10.25;92.05
50282;BME280;36176;51.506;10.272;2024-02-16T05:06:07;99095.91;;;10.27;92.52
50282;BME280;36176;51.506;10.272;2024-02-16T05:08:35;99104.88;;;10.24;92.33
50282;BME280;36176;51.506;10.272;2024-02-16T05:11:02;99091.78;;;10.21;92.66
50282;BME280;36176;51.506;10.272;2024-02-16T05:13:29;99102.63;;;10.16;92.91
50282;BME280;36176;51.506;10.272;2024-02-16T05:15:57;99096.63;;;10.13;93.56
50282;BME280;36176;51.506;10.272;2024-02-16T05:18:27;99091.06;;;10.17;93.38
50282;BME280;36176;51.506;10.272;2024-02-16T05:20:54;99098.78;;;10.22;93.36
50282;BME280;36176;51.506;10.272;2024-02-16T05:23:21;99100.22;;;10.29;92.89
50282;BME280;36176;51.506;10.272;2024-02-16T05:25:48;99086.75;;;10.34;92.72
50282;BME280;36176;51.506;10.272;2024-02-16T05:28:16;99088.13;;;10.41;92.13
50282;BME280;36176;51.506;10.272;2024-02-16T05:30:43;99081.56;;;10.48;91.72
50282;BME280;36176;51.506;10.272;2024-02-16T05:33:10;99089.38;;;10.51;91.67
50282;BME280;36176;51.506;10.272;2024-02-16T05:35:39;99092.69;;;10.55;91.51
50282;BME280;36176;51.506;10.272;2024-02-16T05:38:06;99087.41;;;10.55;91.39
50282;BME280;36176;51.506;10.272;2024-02-16T05:40:34;99086.38;;;10.57;90.98
50282;BME280;36176;51.506;10.272;2024-02-16T05:43:01;99089.28;;;10.53;91.27
50282;BME280;36176;51.506;10.272;2024-02-16T05:45:28;99095.09;;;10.59;91.28
50282;BME280;36176;51.506;10.272;2024-02-16T05:48:01;99096.06;;;10.58;91.00
50282;BME280;36176;51.506;10.272;2024-02-16T05:50:33;99084.69;;;10.56;90.98
50282;BME280;36176;51.506;10.272;2024-02-16T05:53:00;99084.75;;;10.55;91.17
50282;BME280;36176;51.506;10.272;2024-02-16T05:55:30;99094.34;;;10.57;91.25
50282;BME280;36176;51.506;10.272;2024-02-16T05:58:00;99082.94;;;10.55;90.74
50282;BME280;36176;51.506;10.272;2024-02-16T06:00:27;99080.47;;;10.52;90.93
50282;BME280;36176;51.506;10.272;2024-02-16T06:02:55;99085.94;;;10.49;91.14
50282;BME280;36176;51.506;10.272;2024-02-16T06:05:29;99081.50;;;10.50;91.41
50282;BME280;36176;51.506;10.272;2024-02-16T06:07:58;99075.97;;;10.54;90.89
50282;BME280;36176;51.506;10.272;2024-02-16T06:10:26;99079.28;;;10.58;90.99
50282;BME280;36176;51.506;10.272;2024-02-16T06:12:53;99082.53;;;10.63;90.64
50282;BME280;36176;51.506;10.272;2024-02-16T06:15:21;99086.69;;;10.69;90.02
50282;BME280;36176;51.506;10.272;2024-02-16T06:17:50;99093.00;;;10.82;88.81
50282;BME280;36176;51.506;10.272;2024-02-16T06:20:18;99090.47;;;10.96;88.70
50282;BME280;36176;51.506;10.272;2024-02-16T06:22:47;99091.69;;;11.06;88.06
50282;BME280;36176;51.506;10.272;2024-02-16T06:25:17;99088.09;;;11.07;88.56
50282;BME280;36176;51.506;10.272;2024-02-16T06:27:49;99093.06;;;11.14;87.84
50282;BME280;36176;51.506;10.272;2024-02-16T06:30:16;99091.59;;;11.24;87.25
50282;BME280;36176;51.506;10.272;2024-02-16T06:32:44;99097.41;;;11.31;87.55
50282;BME280;36176;51.506;10.272;2024-02-16T06:35:11;99088.44;;;11.33;87.13
50282;BME280;36176;51.506;10.272;2024-02-16T06:37:38;99098.88;;;11.36;87.05
50282;BME280;36176;51.506;10.272;2024-02-16T06:40:06;99091.84;;;11.35;86.73
50282;BME280;36176;51.506;10.272;2024-02-16T06:42:34;99091.50;;;11.41;86.20
50282;BME280;36176;51.506;10.272;2024-02-16T06:45:01;99094.03;;;11.59;85.12
50282;BME280;36176;51.506;10.272;2024-02-16T06:47:29;99086.91;;;11.75;84.20
50282;BME280;36176;51.506;10.272;2024-02-16T06:49:56;99086.13;;;11.89;83.25
50282;BME280;36176;51.506;10.272;2024-02-16T06:52:23;99076.94;;;11.95;83.68
50282;BME280;36176;51.506;10.272;2024-02-16T06:54:51;99077.72;;;11.97;82.95
50282;BME280;36176;51.506;10.272;2024-02-16T06:57:19;99078.41;;;12.00;83.54
50282;BME280;36176;51.506;10.272;2024-02-16T06:59:46;99071.88;;;12.06;82.47
50282;BME280;36176;51.506;10.272;2024-02-16T07:02:14;99076.97;;;12.09;82.55
50282;BME280;36176;51.506;10.272;2024-02-16T07:04:41;99074.16;;;12.12;83.39
50282;BME280;36176;51.506;10.272;2024-02-16T07:07:09;99080.25;;;12.14;83.51
50282;BME280;36176;51.506;10.272;2024-02-16T07:09:39;99095.50;;;12.10;83.52
50282;BME280;36176;51.506;10.272;2024-02-16T07:12:09;99111.63;;;12.07;84.00
50282;BME280;36176;51.506;10.272;2024-02-16T07:14:37;99102.03;;;12.05;84.13
50282;BME280;36176;51.506;10.272;2024-02-16T07:17:04;99111.13;;;12.01;84.85
50282;BME280;36176;51.506;10.272;2024-02-16T07:19:31;99128.16;;;11.97;85.34
50282;BME280;36176;51.506;10.272;2024-02-16T07:21:59;99131.78;;;11.96;84.77
50282;BME280;36176;51.506;10.272;2024-02-16T07:24:26;99140.25;;;12.02;84.94
50282;BME280;36176;51.506;10.272;2024-02-16T07:26:55;99121.19;;;12.10;84.86
50282;BME280;36176;51.506;10.272;2024-02-16T07:29:25;99130.25;;;12.22;84.26
50282;BME280;36176;51.506;10.272;2024-02-16T07:31:52;99121.03;;;12.27;83.87
50282;BME280;36176;51.506;10.272;2024-02-16T07:34:20;99125.03;;;12.34;84.00
50282;BME280;36176;51.506;10.272;2024-02-16T07:36:47;99131.91;;;12.39;83.73
50282;BME280;36176;51.506;10.272;2024-02-16T07:39:17;99130.00;;;12.41;83.96
50282;BME280;36176;51.506;10.272;2024-02-16T07:41:44;99132.94;;;12.36;83.85
50282;BME280;36176;51.506;10.272;2024-02-16T07:44:11;99126.00;;;12.33;84.23
50282;BME280;36176;51.506;10.272;2024-02-16T07:46:44;99131.41;;;12.32;84.67
50282;BME280;36176;51.506;10.272;2024-02-16T07:49:12;99127.13;;;12.29;84.12
50282;BME280;36176;51.506;10.272;2024-02-16T07:51:42;99122.94;;;12.25;84.36
50282;BME280;36176;51.506;10.272;2024-02-16T07:54:09;99124.94;;;12.22;84.46
50282;BME280;36176;51.506;10.272;2024-02-16T07:56:36;99117.81;;;12.22;84.92
50282;BME280;36176;51.506;10.272;2024-02-16T07:59:03;99131.88;;;12.24;84.69
50282;BME280;36176;51.506;10.272;2024-02-16T08:01:30;99121.22;;;12.24;84.46
50282;BME280;36176;51.506;10.272;2024-02-16T08:03:57;99125.59;;;12.25;84.42
50282;BME280;36176;51.506;10.272;2024-02-16T08:06:28;99122.16;;;12.23;84.47
50282;BME280;36176;51.506;10.272;2024-02-16T08:08:55;99137.25;;;12.23;85.03
50282;BME280;36176;51.506;10.272;2024-02-16T08:11:23;99141.53;;;12.25;84.99
50282;BME280;36176;51.506;10.272;2024-02-16T08:13:50;99144.88;;;12.29;84.83
50282;BME280;36176;51.506;10.272;2024-02-16T08:16:17;99158.81;;;12.32;85.69
50282;BME280;36176;51.506;10.272;2024-02-16T08:18:44;99154.34;;;12.33;85.82
50282;BME280;36176;51.506;10.272;2024-02-16T08:21:12;99157.31;;;12.28;85.35
50282;BME280;36176;51.506;10.272;2024-02-16T08:23:39;99153.69;;;12.29;84.75
50282;BME280;36176;51.506;10.272;2024-02-16T08:26:06;99147.16;;;12.35;84.67
50282;BME280;36176;51.506;10.272;2024-02-16T08:28:33;99155.81;;;12.39;84.87
50282;BME280;36176;51.506;10.272;2024-02-16T08:31:01;99154.69;;;12.43;85.18
50282;BME280;36176;51.506;10.272;2024-02-16T08:33:28;99156.03;;;12.50;84.65
50282;BME280;36176;51.506;10.272;2024-02-16T08:35:55;99157.44;;;12.55;85.28
50282;BME280;36176;51.506;10.272;2024-02-16T08:38:23;99156.31;;;12.60;84.61
50282;BME280;36176;51.506;10.272;2024-02-16T08:40:50;99152.16;;;12.70;83.25
50282;BME280;36176;51.506;10.272;2024-02-16T08:43:17;99151.47;;;12.81;83.57
50282;BME280;36176;51.506;10.272;2024-02-16T08:45:44;99157.56;;;12.97;83.40
50282;BME280;36176;51.506;10.272;2024-02-16T08:48:11;99156.63;;;13.12;82.86
50282;BME280;36176;51.506;10.272;2024-02-16T08:50:39;99152.34;;;13.24;81.88
50282;BME280;36176;51.506;10.272;2024-02-16T08:53:07;99163.47;;;13.31;81.39
50282;BME280;36176;51.506;10.272;2024-02-16T08:55:34;99162.25;;;13.36;80.76
50282;BME280;36176;51.506;10.272;2024-02-16T08:58:02;99166.78;;;13.49;81.28
50282;BME280;36176;51.506;10.272;2024-02-16T09:00:29;99164.38;;;13.58;79.35
50282;BME280;36176;51.506;10.272;2024-02-16T09:02:57;99164.94;;;13.64;80.75
50282;BME280;36176;51.506;10.272;2024-02-16T09:05:24;99166.53;;;13.66;80.46
50282;BME280;36176;51.506;10.272;2024-02-16T09:07:52;99167.38;;;13.67;79.88
50282;BME280;36176;51.506;10.272;2024-02-16T09:10:22;99171.09;;;13.64;79.58
50282;BME280;36176;51.506;10.272;2024-02-16T09:12:50;99168.34;;;13.66;79.66
50282;BME280;36176;51.506;10.272;2024-02-16T09:15:17;99164.28;;;13.60;78.37
50282;BME280;36176;51.506;10.272;2024-02-16T09:17:47;99173.88;;;13.63;79.40
50282;BME280;36176;51.506;10.272;2024-02-16T09:20:14;99171.66;;;13.69;79.24
50282;BME280;36176;51.506;10.272;2024-02-16T09:22:41;99171.91;;;13.79;78.66
50282;BME280;36176;51.506;10.272;2024-02-16T09:25:13;99161.97;;;13.95;79.38
50282;BME280;36176;51.506;10.272;2024-02-16T09:27:40;99161.75;;;14.25;78.55
50282;BME280;36176;51.506;10.272;2024-02-16T09:30:12;99152.88;;;14.78;78.12
50282;BME280;36176;51.506;10.272;2024-02-16T09:32:42;99158.31;;;15.02;72.80
50282;BME280;36176;51.506;10.272;2024-02-16T09:35:15;99163.00;;;15.11;73.66
50282;BME280;36176;51.506;10.272;2024-02-16T09:37:44;99166.50;;;15.12;72.52
50282;BME280;36176;51.506;10.272;2024-02-16T09:40:22;99157.75;;;15.09;73.18
50282;BME280;36176;51.506;10.272;2024-02-16T09:42:51;99164.28;;;14.93;72.39
50282;BME280;36176;51.506;10.272;2024-02-16T09:45:19;99160.25;;;14.87;72.84
50282;BME280;36176;51.506;10.272;2024-02-16T09:47:50;99170.03;;;14.86;73.83
50282;BME280;36176;51.506;10.272;2024-02-16T09:50:34;99167.38;;;14.86;72.57
50282;BME280;36176;51.506;10.272;2024-02-16T09:53:09;99166.00;;;14.81;72.27
50282;BME280;36176;51.506;10.272;2024-02-16T09:55:41;99173.47;;;14.88;73.03
50282;BME280;36176;51.506;10.272;2024-02-16T09:58:09;99167.16;;;15.02;73.32
50282;BME280;36176;51.506;10.272;2024-02-16T10:00:36;99157.00;;;15.20;72.50
50282;BME280;36176;51.506;10.272;2024-02-16T10:03:04;99160.00;;;15.16;71.60
50282;BME280;36176;51.506;10.272;2024-02-16T10:05:34;99177.72;;;14.91;71.29
50282;BME280;36176;51.506;10.272;2024-02-16T10:08:11;99178.47;;;14.80;72.88
50282;BME280;36176;51.506;10.272;2024-02-16T10:11:05;99188.19;;;14.68;74.35
50282;BME280;36176;51.506;10.272;2024-02-16T10:13:33;99184.75;;;14.66;75.72
50282;BME280;36176;51.506;10.272;2024-02-16T10:16:11;99184.84;;;14.65;76.13
50282;BME280;36176;51.506;10.272;2024-02-16T10:18:39;99189.56;;;14.61;76.27
50282;BME280;36176;51.506;10.272;2024-02-16T10:21:09;99186.13;;;14.59;77.02
50282;BME280;36176;51.506;10.272;2024-02-16T10:23:36;99192.00;;;14.64;76.95
50282;BME280;36176;51.506;10.272;2024-02-16T10:26:07;99199.47;;;14.72;77.35
50282;BME280;36176;51.506;10.272;2024-02-16T10:28:41;99195.66;;;14.76;76.05
50282;BME280;36176;51.506;10.272;2024-02-16T10:31:13;99198.97;;;14.80;75.91
50282;BME280;36176;51.506;10.272;2024-02-16T10:33:45;99202.50;;;14.80;75.23
50282;BME280;36176;51.506;10.272;2024-02-16T10:36:16;99202.56;;;14.79;74.70
50282;BME280;36176;51.506;10.272;2024-02-16T10:38:48;99201.72;;;14.78;74.31
50282;BME280;36176;51.506;10.272;2024-02-16T10:41:23;99204.50;;;14.77;74.17
50282;BME280;36176;51.506;10.272;2024-02-16T10:43:56;99203.22;;;14.70;76.36
50282;BME280;36176;51.506;10.272;2024-02-16T10:46:29;99195.19;;;14.57;77.45
50282;BME280;36176;51.506;10.272;2024-02-16T10:49:00;99202.84;;;14.49;77.77
50282;BME280;36176;51.506;10.272;2024-02-16T10:51:50;99195.03;;;14.45;79.83
50282;BME280;36176;51.506;10.272;2024-02-16T10:54:23;99193.88;;;14.50;79.52
50282;BME280;36176;51.506;10.272;2024-02-16T10:56:57;99181.53;;;14.49;78.39
50282;BME280;36176;51.506;10.272;2024-02-16T10:59:40;99179.88;;;14.46;77.16
50282;BME280;36176;51.506;10.272;2024-02-16T11:02:10;99183.00;;;14.53;76.98
50282;BME280;36176;51.506;10.272;2024-02-16T11:04:39;99176.75;;;14.54;74.58
50282;BME280;36176;51.506;10.272;2024-02-16T11:07:19;99168.31;;;14.60;74.93
50282;BME280;36176;51.506;10.272;2024-02-16T11:09:47;99167.38;;;14.74;75.08
50282;BME280;36176;51.506;10.272;2024-02-16T11:12:19;99166.53;;;14.86;73.83
50282;BME280;36176;51.506;10.272;2024-02-16T11:14:50;99151.06;;;15.04;74.55
50282;BME280;36176;51.506;10.272;2024-02-16T11:17:29;99151.66;;;15.20;73.43
50282;BME280;36176;51.506;10.272;2024-02-16T11:22:39;99152.78;;;15.42;70.42
50282;BME280;36176;51.506;10.272;2024-02-16T11:25:09;99138.03;;;15.49;71.95
50282;BME280;36176;51.506;10.272;2024-02-16T11:33:16;99143.94;;;15.65;70.08
50282;BME280;36176;51.506;10.272;2024-02-16T11:38:43;99143.22;;;16.00;69.36
50282;BME280;36176;51.506;10.272;2024-02-16T11:41:14;99148.63;;;16.23;69.66
50282;BME280;36176;51.506;10.272;2024-02-16T11:49:23;99150.31;;;16.59;67.29
50282;BME280;36176;51.506;10.272;2024-02-16T11:54:35;99159.41;;;16.92;66.83
50282;BME280;36176;51.506;10.272;2024-02-16T12:36:41;99147.00;;;17.36;63.84
50282;BME280;36176;51.506;10.272;2024-02-16T12:39:15;99151.72;;;17.21;62.49
50282;BME280;36176;51.506;10.272;2024-02-16T12:41:44;99144.31;;;17.02;63.29
50282;BME280;36176;51.506;10.272;2024-02-16T12:44:15;99156.63;;;16.93;63.96
50282;BME280;36176;51.506;10.272;2024-02-16T12:46:47;99155.97;;;16.90;65.00
50282;BME280;36176;51.506;10.272;2024-02-16T12:49:17;99162.19;;;17.01;65.63
50282;BME280;36176;51.506;10.272;2024-02-16T12:51:46;99160.28;;;17.15;63.95
50282;BME280;36176;51.506;10.272;2024-02-16T12:54:14;99161.22;;;17.25;65.54
50282;BME280;36176;51.506;10.272;2024-02-16T12:56:51;99157.56;;;17.37;65.18
50282;BME280;36176;51.506;10.272;2024-02-16T12:59:26;99158.19;;;17.41;64.03
50282;BME280;36176;51.506;10.272;2024-02-16T13:07:20;99168.28;;;17.49;65.04
50282;BME280;36176;51.506;10.272;2024-02-16T13:09:48;99160.50;;;17.46;63.35
50282;BME280;36176;51.506;10.272;2024-02-16T13:12:22;99159.66;;;17.34;63.93
50282;BME280;36176;51.506;10.272;2024-02-16T13:17:44;99168.53;;;17.23;64.15
50282;BME280;36176;51.506;10.272;2024-02-16T13:20:14;99164.91;;;17.24;64.53
50282;BME280;36176;51.506;10.272;2024-02-16T13:22:42;99163.06;;;17.25;64.85
50282;BME280;36176;51.506;10.272;2024-02-16T13:25:12;99160.75;;;17.20;65.08
50282;BME280;36176;51.506;10.272;2024-02-16T13:27:41;99158.81;;;17.22;64.63
50282;BME280;36176;51.506;10.272;2024-02-16T13:30:08;99159.78;;;17.21;64.18
50282;BME280;36176;51.506;10.272;2024-02-16T13:32:41;99157.47;;;17.28;64.55
50282;BME280;36176;51.506;10.272;2024-02-16T13:35:09;99162.44;;;17.32;65.20
50282;BME280;36176;51.506;10.272;2024-02-16T13:37:36;99161.59;;;17.43;64.57
50282;BME280;36176;51.506;10.272;2024-02-16T13:40:04;99156.72;;;17.48;63.88
50282;BME280;36176;51.506;10.272;2024-02-16T13:45:22;99159.59;;;17.68;64.40
50282;BME280;36176;51.506;10.272;2024-02-16T13:47:50;99163.88;;;17.70;64.30
50282;BME280;36176;51.506;10.272;2024-02-16T13:50:17;99166.53;;;17.70;63.68
50282;BME280;36176;51.506;10.272;2024-02-16T13:52:45;99170.56;;;17.64;64.15
50282;BME280;36176;51.506;10.272;2024-02-16T13:55:13;99170.22;;;17.58;64.37
50282;BME280;36176;51.506;10.272;2024-02-16T13:57:43;99175.00;;;17.43;64.25
50282;BME280;36176;51.506;10.272;2024-02-16T14:00:10;99174.63;;;17.25;64.64
50282;BME280;36176;51.506;10.272;2024-02-16T14:02:38;99170.25;;;17.13;65.39
50282;BME280;36176;51.506;10.272;2024-02-16T14:05:06;99174.13;;;17.09;65.89
50282;BME280;36176;51.506;10.272;2024-02-16T14:07:36;99171.72;;;17.17;67.16
50282;BME280;36176;51.506;10.272;2024-02-16T14:10:22;99166.09;;;17.20;66.85